METAR Gardermoen

ENGM 210520Z 36009KT 7000 FEW005 BKN150 M02/M02 Q0985 TEMPO 4000 BR BKN002

Webcam Kjeller

Webcam Eggemoen